METAR Data
IDs: Format: Raw Decoded Include TAF

Data at: 1305 UTC 22 Apr 2021

KTIX 221248Z 01016KT 7SM CLR 22/12 A3011
KTIX 221158Z 02015KT 7SM CLR 21/12 A3007
KTIX 221047Z 02015KT 7SM CLR 21/12 A3007
KTIX 220047Z 00000KT 7SM CLR 23/16 A2997
KTIX 212352Z 00000KT 7SM CLR 26/14 A2996
KTIX 212253Z 30007KT 7SM CLR 30/11 A2996
KTIX 212149Z 27010KT 7SM SCT070 31/14 A2996
KTIX 212055Z 27010KT 7SM SCT070 31/14 A2996
KTIX 211946Z 27010KT 7SM SCT070 31/14 A2996
KTIX 211852Z 27010KT 7SM SCT070 31/14 A2997
KTIX 211747Z 31010KT 7SM SCT070 30/14 A2999
KTIX 211652Z 30006KT 7SM SCT065 29/16 A2999
KTIX 211559Z 30008KT 7SM BKN015 26/21 A3000
KTIX 211447Z 30008KT 7SM BKN015 26/21 A3000
KTIX 211347Z 30008KT 7SM SCT011 BKN065 25/24 A3000
KTIX 211247Z 29005KT 5SM BR BKN065 24/23 A3000
KTIX 211147Z 00000KT 5SM BR BKN040 A2998
KTIX 211047Z 00000KT 5SM BR BKN040 A2997
KTIX 210048Z 00000KT 6SM BR SCT011 BKN065 23/22 A2994
KTIX 202349Z 35005KT 6SM BR BKN011 BKN040 23/22 A2994
KTIX 202250Z 35005KT 6SM BR BKN009 24/23 A2994
KTIX 202147Z 02010KT 6SM BR BKN007 BKN050 24/23 A2993
KTIX 202047Z 36005KT 5SM BR SCT005 BKN050 24/23 A2994
KTIX 201950Z 33004KT 2 SM -RA BKN005 BKN050 22/21 A2996
KTIX 201847Z 32005KT 2 1/2SM -RA BKN009 22/21 A2996
KTIX 201747Z 02010KT 3SM -RA BKN006 23/22 A2996
KTIX 201715Z 33005KT 2SM -RA BKN006 23/22 A2996
KTIX 201646Z 33005KT 5SM -RA OVC010 23/22 A2996
KTIX 201620Z 04009KT 4SM RA BKN010 OVC021 24/22 A2997
KTIX 201547Z 09010KT 7SM SCT010 BKN020 24/22 A2997
KTIX 201447Z 08010KT 7SM BKN029 BKN034 OVC042 24/23 A2997
KTIX 201346Z 02006KT 5SM -RA SCT010 BKN015 OVC029 23/22 A2997
KTIX 201330Z 27018G23KT 2SM +RA SCT010 BKN014 OVC023 24/23 A2998
KTIX 201247Z 11005KT 7SM OVC025 24/23 A2995
KTIX 201147Z 09008KT 7SM BKN019 OVC024 23/22 A2995
KTIX 201047Z 08003KT 7SM SCT018 BKN035 OVC042 24/20 A2995
KTIX 200047Z 00000KT 7SM BKN020 23/22 A2995
KTIX 192347Z 00000KT 7SM SCT030 24/20 A2992
KTIX 192247Z 00000KT 7SM BKN020 24/20 A2991
KTIX 192147Z VRB04KT 7SM BKN015 24/20 A2990
KTIX 192047Z 32005KT 7SM BKN015 25/20 A2990
KTIX 191947Z 33005KT 5SM BR BKN010 23/22 A2991
KTIX 191847Z 35005KT 5SM BR SCT015 BKN030 23/22 A2992
KTIX 191747Z 33005KT 5SM -RA SCT025 BKN040 23/22 A2994
KTIX 191720Z 33003KT 2SM -RA BKN007 25/21 A2994
KTIX 191650Z 33003KT 3SM -RA OVC016 25/21 A2994
KTIX 191550Z 33005KT 7SM BKN012 BKN090 26/21 A2994
KTIX 191450Z VRB03KT 6SM BR SCT008 BKN090 24/23 A2993
KTIX 191350Z 23005KT 7SM -RA BKN045 OVC060 23/22 A2994
KTIX 191250Z 23005KT 5SM BR BKN033 OVC047 22/21 A2994
KTIX 191200Z 23009KT 4SM BR BKN011 OVC040 22/21 A2995
KTIX 191147Z 22007KT 1SM RA OVC009 24/20 A2995
KTIX 191117Z 21010KT 1SM +RA OVC006 24/20 A2994 RMK TS OVH MOV NE
KTIX 191047Z 23004KT 6SM BR BKN016 OVC023 24/20 A2989
KTIX 190047Z 00000KT 7SM SCT040 26/21 A2989
KTIX 182347Z 06005KT 7SM SCT050 26/21 A2989
KTIX 182247Z 09005KT 7SM SCT050 27/21 A2988
KTIX 182147Z 09005KT 7SM BKN050 28/21 A2987
KTIX 182047Z 09010KT 7SM SCT120 29/19 A2986
KTIX 181947Z 08010KT 7SM SCT120 27/19 A2988
KTIX 181847Z 04010KT 7SM SCT040 26/19 A2991
KTIX 181746Z 03012KT 7SM BKN040 26/19 A2993
KTIX 181653Z 30008KT 7SM BKN029 31/20 A2993
KTIX 181547Z 25007KT 7SM BKN029 29/21 A2996
KTIX 181455Z 25009KT 7SM BKN021 28/22 A2995
KTIX 181400Z 23006KT 5SM BR BKN012 27/23 A2993
KTIX 181347Z 21010KT 5SM BR OVC009 27/23 A2993
KTIX 181247Z 21010KT 5SM BR OVC007 25/24 A2994
KTIX 181148Z 20008KT 6SM BR OVC012 23/22 A2990
KTIX 181047Z 18008KT 7SM CLR 22/21 A2990
KTIX 180047Z 35006KT 7SM SCT047 25/24 A2986
KTIX 172347Z 04008KT 7SM BKN050 26/22 A2984
KTIX 172247Z 26005KT 7SM SCT070 31/19 A2983
KTIX 172147Z 26005KT 7SM SCT048 32/18 A2982
KTIX 172047Z 26015KT 7SM SCT048 33/19 A2981
KTIX 171947Z 27012KT 7SM SCT045 32/19 A2982
KTIX 171847Z 26011KT 7SM BKN041 BKN047 BKN110 31/21 A2985
KTIX 171747Z 25009KT 7SM SCT035 SCT043 SCT100 30/21 A2986
KTIX 171547Z 22008KT 4SM -RA BKN020 28/21 A2989
KTIX 171448Z 23004KT 3SM HZ BKN012 26/22 A2989
KTIX 171347Z 24005KT 2SM HZ OVC008 23/22 A2992